createdAt,value
2019-05-22T00:00:55.127Z,90.23
2019-05-22T00:01:55.120Z,90.63
2019-05-22T00:02:55.126Z,90.73
2019-05-22T00:03:55.089Z,90.63
2019-05-22T00:04:55.090Z,90.73
2019-05-22T00:05:55.075Z,90.83
2019-05-22T00:06:55.060Z,91.03
2019-05-22T00:07:55.049Z,90.83
2019-05-22T00:08:55.048Z,90.83
2019-05-22T00:09:55.025Z,90.63
2019-05-22T00:10:55.013Z,91.03
2019-05-22T00:11:55.013Z,90.73
2019-05-22T00:12:55.000Z,91.24
2019-05-22T00:13:55.002Z,90.73
2019-05-22T00:14:54.980Z,90.33
2019-05-22T00:15:54.961Z,90.78
2019-05-22T00:16:54.950Z,89.97
2019-05-22T00:17:54.939Z,90.58
2019-05-22T00:18:54.938Z,90.07
2019-05-22T00:19:54.922Z,90.37
2019-05-22T00:20:54.916Z,90.17
2019-05-22T00:21:54.897Z,90.47
2019-05-22T00:22:54.886Z,90.47
2019-05-22T00:23:54.895Z,90.52
2019-05-22T00:24:54.875Z,90.21
2019-05-22T00:25:54.862Z,90.27
2019-05-22T00:26:54.855Z,90.52
2019-05-22T00:27:54.833Z,90.31
2019-05-22T00:28:54.835Z,90.41
2019-05-22T00:29:54.810Z,90.01
2019-05-22T00:30:54.795Z,89.70
2019-05-22T00:31:54.795Z,89.10
2019-05-22T00:32:54.783Z,89.30
2019-05-22T00:33:54.782Z,89.34
2019-05-22T00:34:54.761Z,89.20
2019-05-22T00:35:54.748Z,89.65
2019-05-22T00:36:54.734Z,89.85
2019-05-22T00:37:54.732Z,89.34
2019-05-22T00:38:54.734Z,89.34
2019-05-22T00:39:54.701Z,89.34
2019-05-22T00:40:54.707Z,89.54
2019-05-22T00:41:54.678Z,89.45
2019-05-22T00:43:04.227Z,89.14
2019-05-22T00:43:55.676Z,89.24
2019-05-22T00:44:54.651Z,89.14
2019-05-22T00:45:54.645Z,89.24
2019-05-22T00:46:54.649Z,89.24
2019-05-22T00:47:54.611Z,88.43
2019-05-22T00:48:54.626Z,89.04
2019-05-22T00:49:54.593Z,88.94
2019-05-22T00:50:54.582Z,88.53
2019-05-22T00:51:54.578Z,88.74
2019-05-22T00:52:54.576Z,88.94
2019-05-22T00:53:54.551Z,88.64
2019-05-22T00:54:54.553Z,88.74
2019-05-22T00:55:54.539Z,88.53
2019-05-22T00:56:54.523Z,88.64
2019-05-22T00:57:54.515Z,88.74
2019-05-22T00:58:54.506Z,88.53
2019-05-22T00:59:54.497Z,89.04
2019-05-22T01:00:54.477Z,88.43
2019-05-22T01:01:54.469Z,88.53
2019-05-22T01:02:54.461Z,89.18
2019-05-22T01:03:54.455Z,89.28
2019-05-22T01:04:54.454Z,89.18
2019-05-22T01:05:54.432Z,89.48
2019-05-22T01:06:54.452Z,89.69
2019-05-22T01:07:54.402Z,89.79
2019-05-22T01:08:54.388Z,89.99
2019-05-22T01:09:54.398Z,89.89
2019-05-22T01:10:54.371Z,89.69
2019-05-22T01:11:54.357Z,89.79
2019-05-22T01:12:54.348Z,90.40
2019-05-22T01:13:54.338Z,89.89
2019-05-22T01:14:54.355Z,90.30
2019-05-22T01:15:54.320Z,90.20
2019-05-22T01:16:54.310Z,89.89
2019-05-22T01:17:54.306Z,90.70
2019-05-22T01:18:54.290Z,90.30
2019-05-22T01:19:54.274Z,90.50
2019-05-22T01:20:54.275Z,90.60
2019-05-22T01:21:54.248Z,91.00
2019-05-22T01:22:54.236Z,91.05
2019-05-22T01:23:54.234Z,91.00
2019-05-22T01:24:54.222Z,91.00
2019-05-22T01:25:54.220Z,90.91
2019-05-22T01:26:54.193Z,90.60
2019-05-22T01:27:54.192Z,90.84
2019-05-22T01:28:54.178Z,90.24
2019-05-22T01:29:54.175Z,90.14
2019-05-22T01:30:54.170Z,90.60
2019-05-22T01:31:54.143Z,89.79
2019-05-22T01:32:54.135Z,89.59
2019-05-22T01:33:54.125Z,89.39
2019-05-22T01:34:54.111Z,89.28
2019-05-22T01:35:54.133Z,89.18
2019-05-22T01:36:54.098Z,89.69
2019-05-22T01:37:54.085Z,89.83
2019-05-22T01:38:54.075Z,89.08
2019-05-22T01:39:54.064Z,88.78
2019-05-22T01:40:54.062Z,89.69
2019-05-22T01:41:54.040Z,89.48
2019-05-22T01:42:54.038Z,89.28
2019-05-22T01:43:54.016Z,89.39
2019-05-22T01:45:04.340Z,89.39
2019-05-22T01:45:55.008Z,89.59
2019-05-22T01:46:53.986Z,88.88
2019-05-22T01:47:53.977Z,88.37
2019-05-22T01:48:53.968Z,88.68
2019-05-22T01:49:53.955Z,88.78
2019-05-22T01:50:53.964Z,88.57
2019-05-22T01:51:53.936Z,88.72
2019-05-22T01:52:53.917Z,88.21
2019-05-22T01:53:54.031Z,88.82
2019-05-22T01:54:53.894Z,88.82
2019-05-22T01:55:53.890Z,88.72
2019-05-22T01:56:53.891Z,88.72
2019-05-22T01:57:53.866Z,88.62
2019-05-22T01:58:53.856Z,89.02
2019-05-22T01:59:54.843Z,88.72
2019-05-22T02:00:53.835Z,88.62
2019-05-22T02:01:53.836Z,88.62
2019-05-22T02:02:53.813Z,88.72
2019-05-22T02:03:53.801Z,89.73
2019-05-22T02:04:53.788Z,89.63
2019-05-22T02:05:53.796Z,89.63
2019-05-22T02:06:53.778Z,89.23
2019-05-22T02:07:53.758Z,89.23
2019-05-22T02:08:53.748Z,89.12
2019-05-22T02:09:53.741Z,89.57
2019-05-22T02:10:53.737Z,89.47
2019-05-22T02:11:53.735Z,89.77
2019-05-22T02:12:53.702Z,89.43
2019-05-22T02:13:53.696Z,89.47
2019-05-22T02:14:53.686Z,89.17
2019-05-22T02:15:53.676Z,89.53
2019-05-22T02:16:57.196Z,89.23
2019-05-22T02:17:56.491Z,88.96
2019-05-22T02:18:53.636Z,88.62
2019-05-22T02:19:53.634Z,88.82
2019-05-22T02:20:53.618Z,88.15
2019-05-22T02:21:53.614Z,88.35
2019-05-22T02:22:53.649Z,88.46
2019-05-22T02:23:53.583Z,88.46
2019-05-22T02:24:53.574Z,88.86
2019-05-22T02:25:53.557Z,89.11
2019-05-22T02:26:53.553Z,88.76
2019-05-22T02:27:53.560Z,88.80
2019-05-22T02:28:53.538Z,88.90
2019-05-22T02:29:53.517Z,88.80
2019-05-22T02:30:53.516Z,89.21
2019-05-22T02:31:55.440Z,89.17
2019-05-22T02:32:53.510Z,88.80
2019-05-22T02:33:53.481Z,88.80
2019-05-22T02:34:53.467Z,89.01
2019-05-22T02:35:53.455Z,89.11
2019-05-22T02:36:53.444Z,89.11
2019-05-22T02:37:53.442Z,88.80
2019-05-22T02:38:53.421Z,88.80
2019-05-22T02:39:53.444Z,88.70
2019-05-22T02:40:53.410Z,88.80
2019-05-22T02:41:53.402Z,88.80
2019-05-22T02:42:53.400Z,88.80
2019-05-22T02:43:53.367Z,88.70
2019-05-22T02:44:53.357Z,88.90
2019-05-22T02:45:53.356Z,88.90
2019-05-22T02:46:53.341Z,88.80
2019-05-22T02:47:53.357Z,89.25
2019-05-22T02:48:53.313Z,89.11
2019-05-22T02:49:53.317Z,89.51
2019-05-22T02:50:53.299Z,89.21
2019-05-22T02:51:53.291Z,89.86
2019-05-22T02:52:53.282Z,89.35
2019-05-22T02:53:53.279Z,89.35
2019-05-22T02:54:53.260Z,89.35
2019-05-22T02:55:53.240Z,89.45
2019-05-22T02:56:53.236Z,89.55
2019-05-22T02:57:53.227Z,89.76
2019-05-22T02:58:53.227Z,89.41
2019-05-22T02:59:53.203Z,89.86
2019-05-22T03:00:53.192Z,90.88
2019-05-22T03:01:53.177Z,90.47
2019-05-22T03:02:53.171Z,90.36
2019-05-22T03:03:53.173Z,90.57
2019-05-22T03:04:53.151Z,90.47
2019-05-22T03:05:53.146Z,91.28
2019-05-22T03:06:53.152Z,91.17
2019-05-22T03:07:53.143Z,91.08
2019-05-22T03:08:53.120Z,90.97
2019-05-22T03:09:53.097Z,90.71
2019-05-22T03:10:53.085Z,91.02
2019-05-22T03:11:53.065Z,90.92
2019-05-22T03:12:53.058Z,91.08
2019-05-22T03:13:53.048Z,91.22
2019-05-22T03:14:53.052Z,90.88
2019-05-22T03:15:53.030Z,90.77
2019-05-22T03:16:53.022Z,91.17
2019-05-22T03:17:53.007Z,91.08
2019-05-22T03:19:07.901Z,90.67
2019-05-22T03:19:54.003Z,91.08
2019-05-22T03:20:52.977Z,91.17
2019-05-22T03:21:52.965Z,91.08
2019-05-22T03:22:52.959Z,90.88
2019-05-22T03:23:52.943Z,90.67
2019-05-22T03:24:52.949Z,90.61
2019-05-22T03:25:52.924Z,90.77
2019-05-22T03:26:52.911Z,91.08
2019-05-22T03:27:52.905Z,90.88
2019-05-22T03:28:52.897Z,90.36
2019-05-22T03:29:52.898Z,90.57
2019-05-22T03:30:52.887Z,90.16
2019-05-22T03:31:52.869Z,90.06
2019-05-22T03:32:52.849Z,89.45
2019-05-22T03:33:52.844Z,89.92
2019-05-22T03:34:52.830Z,89.96
2019-05-22T03:35:52.826Z,89.96
2019-05-22T03:36:52.798Z,89.55
2019-05-22T03:37:52.793Z,89.72
2019-05-22T03:38:52.784Z,90.06
2019-05-22T03:39:52.773Z,90.47
2019-05-22T03:40:52.774Z,90.83
2019-05-22T03:41:52.759Z,90.57
2019-05-22T03:42:52.743Z,89.86
2019-05-22T03:43:52.740Z,89.72
2019-05-22T03:44:52.719Z,89.65
2019-05-22T03:45:52.727Z,89.55
2019-05-22T03:46:52.691Z,89.65
2019-05-22T03:47:52.697Z,89.55
2019-05-22T03:48:52.680Z,89.65
2019-05-22T03:49:52.663Z,89.41
2019-05-22T03:50:52.657Z,89.45
2019-05-22T03:51:52.727Z,89.45
2019-05-22T03:52:52.633Z,89.25
2019-05-22T03:53:52.639Z,89.35
2019-05-22T03:54:52.620Z,89.76
2019-05-22T03:55:52.623Z,89.55
2019-05-22T03:56:52.586Z,89.55
2019-05-22T03:57:52.574Z,90.00
2019-05-22T03:58:52.564Z,89.76
2019-05-22T03:59:52.564Z,89.45
2019-05-22T04:00:52.551Z,89.59
2019-05-22T04:01:52.579Z,89.86
2019-05-22T04:02:52.535Z,90.26
2019-05-22T04:03:52.515Z,90.06
2019-05-22T04:04:52.506Z,90.06
2019-05-22T04:05:52.496Z,90.26
2019-05-22T04:06:52.503Z,89.80
2019-05-22T04:07:52.467Z,90.16
2019-05-22T04:08:52.469Z,90.26
2019-05-22T04:09:52.450Z,90.06
2019-05-22T04:10:52.466Z,90.67
2019-05-22T04:11:52.434Z,90.77
2019-05-22T04:12:52.420Z,90.61
2019-05-22T04:13:52.416Z,90.31
2019-05-22T04:14:52.400Z,91.17
2019-05-22T04:15:52.387Z,90.97
2019-05-22T04:16:52.384Z,91.02
2019-05-22T04:17:52.372Z,91.02
2019-05-22T04:18:52.353Z,91.02
2019-05-22T04:19:52.350Z,91.32
2019-05-22T04:20:52.334Z,91.12
2019-05-22T04:21:52.334Z,91.32
2019-05-22T04:22:52.320Z,91.22
2019-05-22T04:23:52.303Z,91.12
2019-05-22T04:24:52.297Z,91.22
2019-05-22T04:25:53.497Z,91.32
2019-05-22T04:26:52.284Z,91.67
2019-05-22T04:27:52.258Z,91.67
2019-05-22T04:28:52.252Z,91.87
2019-05-22T04:29:52.465Z,91.77
2019-05-22T04:30:52.274Z,92.38
2019-05-22T04:31:52.253Z,92.07
2019-05-22T04:32:52.209Z,91.97
2019-05-22T04:33:52.195Z,91.97
2019-05-22T04:34:52.192Z,91.67
2019-05-22T04:35:52.172Z,91.47
2019-05-22T04:36:52.175Z,91.16
2019-05-22T04:37:52.151Z,91.06
2019-05-22T04:38:52.140Z,91.16
2019-05-22T04:39:52.138Z,91.36
2019-05-22T04:40:52.111Z,91.47
2019-05-22T04:41:52.117Z,91.56
2019-05-22T04:42:52.095Z,91.47
2019-05-22T04:43:52.099Z,91.56
2019-05-22T04:44:52.082Z,91.47
2019-05-22T04:45:52.073Z,90.90
2019-05-22T04:46:52.081Z,91.26
2019-05-22T04:47:52.041Z,90.55
2019-05-22T04:48:52.023Z,90.35
2019-05-22T04:50:06.899Z,90.80
2019-05-22T04:50:53.006Z,91.16
2019-05-22T04:51:52.008Z,91.26
2019-05-22T04:52:52.006Z,91.20
2019-05-22T04:53:51.976Z,91.30
2019-05-22T04:54:52.706Z,91.20
2019-05-22T04:55:51.966Z,91.00
2019-05-22T04:56:51.948Z,91.26
2019-05-22T04:57:51.953Z,90.80
2019-05-22T04:58:51.932Z,90.19
2019-05-22T04:59:51.916Z,91.20
2019-05-22T05:00:51.905Z,90.90
2019-05-22T05:01:51.900Z,89.98
2019-05-22T05:02:51.901Z,90.29
2019-05-22T05:03:51.910Z,90.29
2019-05-22T05:04:51.876Z,90.19
2019-05-22T05:05:51.858Z,90.49
2019-05-22T05:06:51.855Z,91.20
2019-05-22T05:07:51.826Z,91.10
2019-05-22T05:08:51.835Z,91.10
2019-05-22T05:09:51.807Z,90.94
2019-05-22T05:10:51.804Z,91.05
2019-05-22T05:11:51.781Z,91.45
2019-05-22T05:12:51.774Z,91.05
2019-05-22T05:13:51.770Z,91.35
2019-05-22T05:14:51.750Z,91.55
2019-05-22T05:15:51.746Z,91.55
2019-05-22T05:16:51.734Z,91.14
2019-05-22T05:17:51.725Z,91.75
2019-05-22T05:18:51.727Z,91.05
2019-05-22T05:19:51.713Z,91.05
2019-05-22T05:20:51.693Z,91.09
2019-05-22T05:21:51.679Z,91.05
2019-05-22T05:22:51.671Z,90.99
2019-05-22T05:23:51.674Z,91.19
2019-05-22T05:24:51.650Z,91.05
2019-05-22T05:25:51.629Z,91.45
2019-05-22T05:26:51.619Z,90.53
2019-05-22T05:27:51.620Z,91.45
2019-05-22T05:28:52.510Z,91.49
2019-05-22T05:29:51.598Z,90.88
2019-05-22T05:30:51.592Z,90.84
2019-05-22T05:31:51.572Z,90.53
2019-05-22T05:32:51.582Z,90.64
2019-05-22T05:33:51.571Z,90.03
2019-05-22T05:34:51.539Z,89.62
2019-05-22T05:35:51.534Z,89.83
2019-05-22T05:36:51.523Z,89.83
2019-05-22T05:37:51.515Z,89.52
2019-05-22T05:38:51.521Z,89.01
2019-05-22T05:39:51.511Z,89.36
2019-05-22T05:40:51.475Z,89.83
2019-05-22T05:41:51.470Z,89.72
2019-05-22T05:42:51.494Z,89.62
2019-05-22T05:43:51.487Z,89.36
2019-05-22T05:44:51.430Z,89.11
2019-05-22T05:45:51.467Z,89.36
2019-05-22T05:46:51.412Z,89.52
2019-05-22T05:47:51.411Z,89.62
2019-05-22T05:48:51.423Z,89.83
2019-05-22T05:49:51.405Z,89.83
2019-05-22T05:50:51.375Z,89.01
2019-05-22T05:51:51.383Z,89.05
2019-05-22T05:52:51.463Z,89.36
2019-05-22T05:53:51.371Z,89.83
2019-05-22T05:54:51.361Z,89.66
2019-05-22T05:55:51.324Z,89.56
2019-05-22T05:56:51.313Z,89.11
2019-05-22T05:57:51.294Z,88.60
2019-05-22T05:58:51.283Z,89.31
2019-05-22T05:59:51.293Z,88.54
2019-05-22T06:00:51.282Z,89.05
2019-05-22T06:01:51.262Z,88.65
2019-05-22T06:02:56.474Z,88.75
2019-05-22T06:03:52.228Z,89.05
2019-05-22T06:04:51.226Z,89.05
2019-05-22T06:05:51.197Z,89.36
2019-05-22T06:06:51.250Z,89.46
2019-05-22T06:07:51.185Z,89.36
2019-05-22T06:08:51.173Z,89.15
2019-05-22T06:09:51.192Z,89.05
2019-05-22T06:10:51.175Z,89.05
2019-05-22T06:11:51.137Z,89.15
2019-05-22T06:12:51.143Z,88.95
2019-05-22T06:13:51.135Z,89.15
2019-05-22T06:14:51.129Z,89.05
2019-05-22T06:15:51.109Z,89.36
2019-05-22T06:16:51.095Z,89.05
2019-05-22T06:17:51.081Z,89.05
2019-05-22T06:18:51.068Z,89.36
2019-05-22T06:19:51.096Z,89.05
2019-05-22T06:21:03.282Z,89.05
2019-05-22T06:21:52.050Z,89.56
2019-05-22T06:22:51.040Z,89.76
2019-05-22T06:23:51.012Z,89.46
2019-05-22T06:24:51.002Z,89.76
2019-05-22T06:25:51.019Z,89.56
2019-05-22T06:26:50.981Z,89.66
2019-05-22T06:27:50.970Z,90.37
2019-05-22T06:28:50.975Z,90.27
2019-05-22T06:29:50.943Z,90.72
2019-05-22T06:30:50.952Z,90.68
2019-05-22T06:31:50.929Z,91.13
2019-05-22T06:32:50.926Z,90.62
2019-05-22T06:33:50.921Z,90.62
2019-05-22T06:34:50.900Z,91.03
2019-05-22T06:35:50.920Z,91.33
2019-05-22T06:36:50.878Z,90.52
2019-05-22T06:37:50.859Z,90.62
2019-05-22T06:38:50.852Z,91.03
2019-05-22T06:39:50.845Z,90.01
2019-05-22T06:40:50.825Z,90.42
2019-05-22T06:41:50.831Z,90.92
2019-05-22T06:42:50.809Z,91.07
2019-05-22T06:43:50.790Z,91.38
2019-05-22T06:44:50.792Z,91.27
2019-05-22T06:45:50.782Z,91.48
2019-05-22T06:46:50.789Z,91.17
2019-05-22T06:47:50.746Z,91.17
2019-05-22T06:48:50.733Z,91.27
2019-05-22T06:49:50.727Z,91.48
2019-05-22T06:50:50.713Z,91.38
2019-05-22T06:51:50.761Z,91.27
2019-05-22T06:52:50.696Z,91.27
2019-05-22T06:53:50.693Z,91.68
2019-05-22T06:54:50.788Z,90.66
2019-05-22T06:55:50.683Z,90.97
2019-05-22T06:56:50.660Z,90.46
2019-05-22T06:57:50.641Z,89.85
2019-05-22T06:58:50.630Z,89.54
2019-05-22T07:00:10.804Z,89.64
2019-05-22T07:00:51.639Z,89.24
2019-05-22T07:01:50.593Z,89.03
2019-05-22T07:02:50.589Z,88.83
2019-05-22T07:03:50.649Z,88.83
2019-05-22T07:04:50.565Z,89.14
2019-05-22T07:05:50.562Z,89.03
2019-05-22T07:06:50.566Z,89.24
2019-05-22T07:07:50.526Z,88.83
2019-05-22T07:08:50.514Z,89.03
2019-05-22T07:09:50.504Z,89.44
2019-05-22T07:10:50.494Z,89.14
2019-05-22T07:11:50.494Z,88.59
2019-05-22T07:12:51.190Z,88.89
2019-05-22T07:13:50.469Z,88.79
2019-05-22T07:14:50.461Z,88.59
2019-05-22T07:15:50.520Z,87.67
2019-05-22T07:16:50.428Z,88.08
2019-05-22T07:17:50.447Z,87.93
2019-05-22T07:18:50.431Z,88.54
2019-05-22T07:19:50.396Z,87.87
2019-05-22T07:20:50.424Z,88.34
2019-05-22T07:21:50.380Z,88.13
2019-05-22T07:22:50.365Z,87.53
2019-05-22T07:23:50.374Z,87.43
2019-05-22T07:24:50.354Z,87.47
2019-05-22T07:25:50.363Z,87.26
2019-05-22T07:26:50.333Z,87.23
2019-05-22T07:27:50.310Z,87.23
2019-05-22T07:28:50.317Z,87.32
2019-05-22T07:29:50.290Z,87.37
2019-05-22T07:30:50.279Z,86.21
2019-05-22T07:31:50.273Z,85.90
2019-05-22T07:32:50.271Z,86.10
2019-05-22T07:33:50.324Z,86.41
2019-05-22T07:34:50.254Z,86.61
2019-05-22T07:36:08.548Z,86.51
2019-05-22T07:36:51.224Z,86.10
2019-05-22T07:37:50.214Z,85.80
2019-05-22T07:38:50.221Z,85.90
2019-05-22T07:39:50.180Z,85.49
2019-05-22T07:40:51.454Z,85.70
2019-05-22T07:41:50.170Z,85.90
2019-05-22T07:42:50.279Z,85.55
2019-05-22T07:43:50.172Z,85.55
2019-05-22T07:44:50.214Z,85.60
2019-05-22T07:45:50.135Z,85.70
2019-05-22T07:46:50.121Z,86.07
2019-05-22T07:47:50.110Z,86.00
2019-05-22T07:48:50.087Z,86.00
2019-05-22T07:49:50.101Z,85.49
2019-05-22T07:50:50.100Z,85.19
2019-05-22T07:51:57.449Z,85.19
2019-05-22T07:52:51.041Z,85.86
2019-05-22T07:53:50.032Z,85.49
2019-05-22T07:54:50.036Z,85.80
2019-05-22T07:55:50.019Z,85.49
2019-05-22T07:56:50.010Z,84.78
2019-05-22T07:57:50.005Z,84.58
2019-05-22T07:58:49.995Z,85.70
2019-05-22T07:59:49.984Z,85.80
2019-05-22T08:00:49.960Z,85.80
2019-05-22T08:01:49.976Z,86.00
2019-05-22T08:02:49.948Z,85.70
2019-05-22T08:03:49.935Z,86.00
2019-05-22T08:04:49.945Z,85.60
2019-05-22T08:05:49.906Z,84.58
2019-05-22T08:06:49.897Z,83.97
2019-05-22T08:07:49.922Z,84.28
2019-05-22T08:08:49.881Z,84.28
2019-05-22T08:09:49.894Z,84.17
2019-05-22T08:10:49.863Z,84.38
2019-05-22T08:11:49.843Z,84.54
2019-05-22T08:12:49.835Z,84.13
2019-05-22T08:13:49.821Z,83.22
2019-05-22T08:14:49.828Z,83.93
2019-05-22T08:15:49.805Z,84.03
2019-05-22T08:16:49.793Z,83.83
2019-05-22T08:17:49.784Z,83.83
2019-05-22T08:18:49.769Z,84.13
2019-05-22T08:19:49.780Z,84.13
2019-05-22T08:20:49.741Z,83.83
2019-05-22T08:21:49.735Z,84.03
2019-05-22T08:22:49.728Z,83.93
2019-05-22T08:23:49.709Z,84.03
2019-05-22T08:24:49.702Z,84.17
2019-05-22T08:25:49.706Z,84.48
2019-05-22T08:26:54.516Z,84.03
2019-05-22T08:27:50.682Z,84.54
2019-05-22T08:28:49.766Z,84.58
2019-05-22T08:29:49.664Z,84.78
2019-05-22T08:30:49.654Z,85.46
2019-05-22T08:31:49.627Z,85.60
2019-05-22T08:32:49.615Z,84.54
2019-05-22T08:33:49.618Z,84.07
2019-05-22T08:34:49.592Z,84.03
2019-05-22T08:35:49.603Z,83.87
2019-05-22T08:36:49.577Z,83.93
2019-05-22T08:37:49.558Z,83.97
2019-05-22T08:38:49.550Z,84.28
2019-05-22T08:39:49.549Z,83.97
2019-05-22T08:40:49.547Z,83.93
2019-05-22T08:41:49.524Z,84.13
2019-05-22T08:42:49.519Z,84.13
2019-05-22T08:44:13.731Z,83.83
2019-05-22T08:44:50.493Z,83.87
2019-05-22T08:45:49.511Z,83.87
2019-05-22T08:46:49.473Z,83.97
2019-05-22T08:47:49.467Z,84.17
2019-05-22T08:48:49.727Z,84.17
2019-05-22T08:49:49.436Z,84.28
2019-05-22T08:50:49.454Z,83.42
2019-05-22T08:51:49.421Z,83.53
2019-05-22T08:52:49.400Z,84.13
2019-05-22T08:53:49.397Z,83.73
2019-05-22T08:54:49.383Z,82.81
2019-05-22T08:55:49.370Z,82.71
2019-05-22T08:56:49.368Z,82.61
2019-05-22T08:57:49.374Z,83.01
2019-05-22T08:58:49.333Z,83.01
2019-05-22T08:59:49.329Z,82.92
2019-05-22T09:00:49.322Z,82.81
2019-05-22T09:01:49.322Z,82.61
2019-05-22T09:02:49.299Z,82.92
2019-05-22T09:03:49.281Z,82.31
2019-05-22T09:04:49.269Z,82.51
2019-05-22T09:05:49.270Z,83.01
2019-05-22T09:06:49.274Z,83.01
2019-05-22T09:07:49.253Z,83.53
2019-05-22T09:08:49.236Z,83.83
2019-05-22T09:09:49.216Z,83.73
2019-05-22T09:10:49.212Z,83.93
2019-05-22T09:11:49.232Z,84.03
2019-05-22T09:12:49.201Z,84.54
2019-05-22T09:13:49.184Z,84.95
2019-05-22T09:14:49.171Z,84.54
2019-05-22T09:15:49.157Z,84.74
2019-05-22T09:16:49.153Z,84.13
2019-05-22T09:17:49.144Z,84.03
2019-05-22T09:18:49.121Z,84.13
2019-05-22T09:19:49.115Z,84.28
2019-05-22T09:20:49.918Z,83.83
2019-05-22T09:21:49.113Z,84.34
2019-05-22T09:22:49.088Z,84.03
2019-05-22T09:23:49.078Z,84.23
2019-05-22T09:24:49.080Z,84.23
2019-05-22T09:25:49.059Z,84.03
2019-05-22T09:26:49.042Z,83.62
2019-05-22T09:27:49.035Z,83.62
2019-05-22T09:28:49.013Z,83.42
2019-05-22T09:29:49.003Z,83.62
2019-05-22T09:30:48.993Z,83.73
2019-05-22T09:31:48.988Z,83.59
2019-05-22T09:32:48.988Z,83.62
2019-05-22T09:33:49.017Z,83.62
2019-05-22T09:34:48.955Z,83.18
2019-05-22T09:35:48.940Z,83.69
2019-05-22T09:36:48.936Z,83.89
2019-05-22T09:37:48.930Z,83.08
2019-05-22T09:38:52.238Z,82.98
2019-05-22T09:39:48.905Z,82.98
2019-05-22T09:40:48.892Z,82.87
2019-05-22T09:41:48.876Z,83.69
2019-05-22T09:42:48.879Z,83.69
2019-05-22T09:43:48.856Z,83.38
2019-05-22T09:44:48.844Z,82.47
2019-05-22T09:45:48.838Z,82.06
2019-05-22T09:46:48.831Z,81.72
2019-05-22T09:47:48.820Z,81.86
2019-05-22T09:48:48.824Z,81.82
2019-05-22T09:49:48.786Z,82.23
2019-05-22T09:50:48.780Z,82.17
2019-05-22T09:51:48.774Z,82.94
2019-05-22T09:52:57.556Z,82.64
2019-05-22T09:53:49.747Z,82.17
2019-05-22T09:54:48.743Z,82.94
2019-05-22T09:55:48.721Z,82.78
2019-05-22T09:56:48.713Z,81.86
2019-05-22T09:57:48.737Z,82.37
2019-05-22T09:58:48.694Z,81.82
2019-05-22T09:59:48.679Z,82.33
2019-05-22T10:00:48.670Z,81.62
2019-05-22T10:01:48.659Z,81.62
2019-05-22T10:02:48.650Z,82.12
2019-05-22T10:03:48.655Z,81.82
2019-05-22T10:04:48.631Z,81.52
2019-05-22T10:05:48.724Z,81.31
2019-05-22T10:06:48.620Z,81.52
2019-05-22T10:07:59.868Z,81.21
2019-05-22T10:08:49.595Z,81.62
2019-05-22T10:09:48.580Z,82.03
2019-05-22T10:10:48.592Z,80.71
2019-05-22T10:11:48.556Z,82.23
2019-05-22T10:12:48.562Z,81.72
2019-05-22T10:13:48.811Z,81.72
2019-05-22T10:14:48.517Z,81.82
2019-05-22T10:15:48.514Z,81.86
2019-05-22T10:16:48.506Z,81.96
2019-05-22T10:17:48.489Z,82.06
2019-05-22T10:18:52.805Z,82.87
2019-05-22T10:19:49.468Z,82.78
2019-05-22T10:20:48.452Z,83.38
2019-05-22T10:21:48.449Z,82.98
2019-05-22T10:22:48.445Z,82.98
2019-05-22T10:23:48.430Z,82.64
2019-05-22T10:24:50.294Z,82.37
2019-05-22T10:25:48.409Z,82.03
2019-05-22T10:26:48.398Z,81.86
2019-05-22T10:27:48.393Z,81.82
2019-05-22T10:28:48.371Z,81.41
2019-05-22T10:29:48.379Z,81.21
2019-05-22T10:30:48.351Z,81.52
2019-05-22T10:31:48.335Z,80.80
2019-05-22T10:32:48.328Z,80.97
2019-05-22T10:33:51.781Z,80.66
2019-05-22T10:34:48.331Z,81.18
2019-05-22T10:35:48.297Z,81.38
2019-05-22T10:36:48.286Z,81.82
2019-05-22T10:37:48.278Z,82.33
2019-05-22T10:38:48.280Z,82.53
2019-05-22T10:39:48.248Z,83.54
2019-05-22T10:40:48.256Z,83.40
2019-05-22T10:41:48.229Z,82.94
2019-05-22T10:42:48.216Z,81.92
2019-05-22T10:43:48.218Z,81.62
2019-05-22T10:44:48.208Z,82.33
2019-05-22T10:45:48.200Z,81.86
2019-05-22T10:46:48.176Z,82.67
2019-05-22T10:47:48.173Z,82.57
2019-05-22T10:48:48.158Z,82.87
2019-05-22T10:49:48.148Z,83.18
2019-05-22T10:50:48.150Z,83.79
2019-05-22T10:51:48.126Z,82.98
2019-05-22T10:52:53.723Z,82.78
2019-05-22T10:53:49.192Z,82.47
2019-05-22T10:54:48.350Z,82.57
2019-05-22T10:55:48.642Z,82.17
2019-05-22T10:56:48.388Z,82.57
2019-05-22T10:57:48.674Z,82.17
2019-05-22T10:58:48.321Z,81.76
2019-05-22T10:59:48.175Z,81.76
2019-05-22T11:00:48.236Z,81.86
2019-05-22T11:01:48.555Z,81.86
2019-05-22T11:02:48.311Z,81.72
2019-05-22T11:03:48.197Z,81.62
2019-05-22T11:04:48.261Z,81.62
2019-05-22T11:06:03.819Z,81.21
2019-05-22T11:06:50.365Z,82.03
2019-05-22T11:07:47.957Z,81.21
2019-05-22T11:08:47.972Z,81.41
2019-05-22T11:09:47.937Z,80.71
2019-05-22T11:10:48.004Z,80.91
2019-05-22T11:11:47.929Z,81.72
2019-05-22T11:12:47.900Z,81.92
2019-05-22T11:14:00.564Z,81.92
2019-05-22T11:14:48.874Z,81.72
2019-05-22T11:15:47.876Z,81.62
2019-05-22T11:16:47.858Z,81.41
2019-05-22T11:17:47.855Z,81.41
2019-05-22T11:18:47.833Z,81.52
2019-05-22T11:19:47.838Z,81.31
2019-05-22T11:20:48.599Z,81.21
2019-05-22T11:21:47.807Z,81.01
2019-05-22T11:22:47.806Z,81.31
2019-05-22T11:23:52.617Z,81.72
2019-05-22T11:24:48.766Z,81.58
2019-05-22T11:25:47.759Z,81.18
2019-05-22T11:26:47.743Z,82.03
2019-05-22T11:27:47.761Z,81.62
2019-05-22T11:28:47.728Z,82.43
2019-05-22T11:29:47.719Z,82.33
2019-05-22T11:30:47.708Z,82.53
2019-05-22T11:31:47.694Z,82.94
2019-05-22T11:32:47.709Z,82.67
2019-05-22T11:33:47.674Z,82.47
2019-05-22T11:34:47.668Z,82.47
2019-05-22T11:35:47.649Z,82.78
2019-05-22T11:36:47.641Z,82.37
2019-05-22T11:37:47.643Z,82.67
2019-05-22T11:38:47.630Z,82.57
2019-05-22T11:39:47.621Z,82.57
2019-05-22T11:40:47.599Z,82.81
2019-05-22T11:41:47.594Z,82.98
2019-05-22T11:42:47.586Z,82.26
2019-05-22T11:43:47.573Z,82.67
2019-05-22T11:44:47.552Z,83.69
2019-05-22T11:45:47.542Z,83.59
2019-05-22T11:46:47.533Z,82.37
2019-05-22T11:47:47.529Z,82.23
2019-05-22T11:48:47.532Z,82.78
2019-05-22T11:49:47.499Z,83.04
2019-05-22T11:50:47.527Z,82.87
2019-05-22T11:51:47.483Z,83.79
2019-05-22T11:52:47.474Z,83.48
2019-05-22T11:53:47.471Z,83.79
2019-05-22T11:54:47.452Z,83.79
2019-05-22T11:55:47.432Z,83.83
2019-05-22T11:56:47.422Z,83.28
2019-05-22T11:57:47.413Z,83.99
2019-05-22T11:58:47.426Z,84.30
2019-05-22T11:59:47.395Z,84.30
2019-05-22T12:00:47.394Z,84.30
2019-05-22T12:01:47.379Z,84.23
2019-05-22T12:02:47.363Z,84.34
2019-05-22T12:03:47.363Z,84.91
2019-05-22T12:04:48.903Z,85.05
2019-05-22T12:05:47.328Z,84.95
2019-05-22T12:06:47.325Z,85.05
2019-05-22T12:07:47.307Z,85.49
2019-05-22T12:08:47.326Z,86.00
2019-05-22T12:09:47.285Z,86.31
2019-05-22T12:10:47.269Z,86.16
2019-05-22T12:11:47.267Z,85.96
2019-05-22T12:12:47.257Z,86.27
2019-05-22T12:13:47.246Z,85.76
2019-05-22T12:14:47.246Z,85.86
2019-05-22T12:15:47.219Z,85.70
2019-05-22T12:16:47.208Z,85.46
2019-05-22T12:17:47.199Z,84.58
2019-05-22T12:18:47.205Z,84.99
2019-05-22T12:19:47.204Z,85.70
2019-05-22T12:20:47.170Z,85.90
2019-05-22T12:21:47.155Z,85.29
2019-05-22T12:22:47.161Z,85.70
2019-05-22T12:23:47.153Z,85.80
2019-05-22T12:24:47.152Z,85.90
2019-05-22T12:25:47.116Z,85.49
2019-05-22T12:26:47.138Z,85.60
2019-05-22T12:27:47.093Z,85.60
2019-05-22T12:28:47.091Z,85.39
2019-05-22T12:29:47.082Z,84.99
2019-05-22T12:30:47.057Z,85.19
2019-05-22T12:31:47.128Z,85.19
2019-05-22T12:32:47.045Z,85.39
2019-05-22T12:33:47.033Z,85.19
2019-05-22T12:34:49.396Z,84.68
2019-05-22T12:35:47.003Z,84.58
2019-05-22T12:36:51.056Z,84.68
2019-05-22T12:37:46.998Z,84.28
2019-05-22T12:38:46.977Z,84.28
2019-05-22T12:39:47.003Z,84.38
2019-05-22T12:40:46.953Z,84.74
2019-05-22T12:41:46.941Z,83.83
2019-05-22T12:42:46.929Z,84.23
2019-05-22T12:43:46.926Z,84.03
2019-05-22T12:44:46.915Z,83.42
2019-05-22T12:45:46.937Z,83.53
2019-05-22T12:46:46.909Z,83.76
2019-05-22T12:47:46.881Z,83.62
2019-05-22T12:48:46.868Z,83.42
2019-05-22T12:49:46.888Z,83.83
2019-05-22T12:50:46.854Z,84.03
2019-05-22T12:51:46.848Z,84.07
2019-05-22T12:52:46.829Z,84.54